createdAt,value
2018-02-23T00:00:25.741Z,0.90
2018-02-23T00:00:57.373Z,0.90
2018-02-23T00:01:28.981Z,0.90
2018-02-23T00:02:00.664Z,1.00
2018-02-23T00:02:32.325Z,0.80
2018-02-23T00:03:03.953Z,0.80
2018-02-23T00:03:35.571Z,0.90
2018-02-23T00:04:07.211Z,0.80
2018-02-23T00:04:38.855Z,0.80
2018-02-23T00:05:10.501Z,0.80
2018-02-23T00:05:42.136Z,0.80
2018-02-23T00:06:13.766Z,0.80
2018-02-23T00:06:45.429Z,0.90
2018-02-23T00:07:17.083Z,0.80
2018-02-23T00:07:48.732Z,0.80
2018-02-23T00:08:20.385Z,0.80
2018-02-23T00:08:52.229Z,0.80
2018-02-23T00:09:23.859Z,0.70
2018-02-23T00:09:55.507Z,0.80
2018-02-23T00:10:27.159Z,0.70
2018-02-23T00:10:58.812Z,0.80
2018-02-23T00:11:30.431Z,0.80
2018-02-23T00:12:02.095Z,0.70
2018-02-23T00:12:33.754Z,0.70
2018-02-23T00:13:05.417Z,0.70
2018-02-23T00:13:37.050Z,0.80
2018-02-23T00:14:08.698Z,0.80
2018-02-23T00:14:40.323Z,0.70
2018-02-23T00:15:11.977Z,0.70
2018-02-23T00:15:43.657Z,0.80
2018-02-23T00:16:15.297Z,0.80
2018-02-23T00:16:46.928Z,0.70
2018-02-23T00:17:18.564Z,0.80
2018-02-23T00:17:50.194Z,0.80
2018-02-23T00:18:21.817Z,0.80
2018-02-23T00:18:53.439Z,0.70
2018-02-23T00:19:25.069Z,0.80
2018-02-23T00:19:56.687Z,0.70
2018-02-23T00:20:28.329Z,0.80
2018-02-23T00:20:59.950Z,0.80
2018-02-23T00:21:31.573Z,0.80
2018-02-23T00:22:03.219Z,0.80
2018-02-23T00:22:40.881Z,0.70
2018-02-23T00:23:12.505Z,0.80
2018-02-23T00:23:44.121Z,0.80
2018-02-23T00:24:15.761Z,0.80
2018-02-23T00:24:47.376Z,0.80
2018-02-23T00:25:18.981Z,0.90
2018-02-23T00:25:50.605Z,0.90
2018-02-23T00:26:22.232Z,0.90
2018-02-23T00:26:53.875Z,0.80
2018-02-23T00:27:25.515Z,0.90
2018-02-23T00:27:57.155Z,0.90
2018-02-23T00:28:28.774Z,0.80
2018-02-23T00:29:00.438Z,0.90
2018-02-23T00:29:32.073Z,0.80
2018-02-23T00:30:03.707Z,0.80
2018-02-23T00:30:35.333Z,0.80
2018-02-23T00:31:06.975Z,0.80
2018-02-23T00:31:38.601Z,0.80
2018-02-23T00:32:10.225Z,0.80
2018-02-23T00:32:41.886Z,0.90
2018-02-23T00:33:13.489Z,0.90
2018-02-23T00:33:45.102Z,0.90
2018-02-23T00:34:16.729Z,0.90
2018-02-23T00:34:48.355Z,0.90
2018-02-23T00:35:20.005Z,0.90
2018-02-23T00:35:51.635Z,0.90
2018-02-23T00:36:23.302Z,0.80
2018-02-23T00:36:54.936Z,0.90
2018-02-23T00:37:26.566Z,0.80
2018-02-23T00:37:58.173Z,0.90
2018-02-23T00:38:29.791Z,0.80
2018-02-23T00:39:01.431Z,0.90
2018-02-23T00:39:33.072Z,0.90
2018-02-23T00:40:04.731Z,0.90
2018-02-23T00:40:36.375Z,0.80
2018-02-23T00:41:07.985Z,0.90
2018-02-23T00:41:39.628Z,0.90
2018-02-23T00:42:11.254Z,0.90
2018-02-23T00:42:42.875Z,0.80
2018-02-23T00:43:14.526Z,0.80
2018-02-23T00:43:46.145Z,0.80
2018-02-23T00:44:17.755Z,0.70
2018-02-23T00:44:49.359Z,0.80
2018-02-23T00:45:20.955Z,0.80
2018-02-23T00:45:52.579Z,0.70
2018-02-23T00:46:24.219Z,0.80
2018-02-23T00:46:55.831Z,0.70
2018-02-23T00:47:27.465Z,0.70
2018-02-23T00:47:59.088Z,0.70
2018-02-23T00:48:30.725Z,0.70
2018-02-23T00:49:02.353Z,0.70
2018-02-23T00:49:33.965Z,0.70
2018-02-23T00:50:05.621Z,0.70
2018-02-23T00:50:37.234Z,0.70
2018-02-23T00:51:08.858Z,0.60
2018-02-23T00:51:40.491Z,0.60
2018-02-23T00:52:12.124Z,0.70
2018-02-23T00:52:43.757Z,0.60
2018-02-23T00:53:15.365Z,0.70
2018-02-23T00:53:47.007Z,0.70
2018-02-23T00:54:18.611Z,0.70
2018-02-23T00:54:50.237Z,0.70
2018-02-23T00:55:21.884Z,0.60
2018-02-23T00:55:53.523Z,0.70
2018-02-23T00:56:25.121Z,0.60
2018-02-23T00:56:56.758Z,0.70
2018-02-23T00:57:28.438Z,0.70
2018-02-23T00:58:00.060Z,0.70
2018-02-23T00:58:31.693Z,0.70
2018-02-23T00:59:03.317Z,0.70
2018-02-23T00:59:34.944Z,0.60
2018-02-23T01:00:06.591Z,0.60
2018-02-23T01:00:38.247Z,0.70
2018-02-23T01:01:09.905Z,0.60
2018-02-23T01:01:41.529Z,0.60
2018-02-23T01:02:13.183Z,0.70
2018-02-23T01:02:44.836Z,0.70
2018-02-23T01:03:16.457Z,0.70
2018-02-23T01:03:48.071Z,0.60
2018-02-23T01:04:19.709Z,0.60
2018-02-23T01:04:51.343Z,0.60
2018-02-23T01:05:22.988Z,0.70
2018-02-23T01:05:54.602Z,0.70
2018-02-23T01:06:26.227Z,0.70
2018-02-23T01:06:57.870Z,0.60
2018-02-23T01:07:29.521Z,0.70
2018-02-23T01:08:01.178Z,0.60
2018-02-23T01:08:32.817Z,0.70
2018-02-23T01:09:04.461Z,0.70
2018-02-23T01:09:36.097Z,0.70
2018-02-23T01:10:07.697Z,0.70
2018-02-23T01:10:39.317Z,0.70
2018-02-23T01:11:10.959Z,0.70
2018-02-23T01:11:42.571Z,0.60
2018-02-23T01:12:14.217Z,0.60
2018-02-23T01:12:45.877Z,0.60
2018-02-23T01:13:17.547Z,0.70
2018-02-23T01:13:49.154Z,0.60
2018-02-23T01:14:20.788Z,0.70
2018-02-23T01:14:52.422Z,0.60
2018-02-23T01:15:24.085Z,0.50
2018-02-23T01:15:55.711Z,0.60
2018-02-23T01:16:27.345Z,0.60
2018-02-23T01:16:58.965Z,0.60
2018-02-23T01:17:30.597Z,0.70
2018-02-23T01:18:02.225Z,0.60
2018-02-23T01:18:33.837Z,0.60
2018-02-23T01:19:05.477Z,0.60
2018-02-23T01:19:37.112Z,0.70
2018-02-23T01:20:08.737Z,0.60
2018-02-23T01:20:40.347Z,0.60
2018-02-23T01:21:11.951Z,0.60
2018-02-23T01:21:43.573Z,0.60
2018-02-23T01:22:15.191Z,0.60
2018-02-23T01:22:46.824Z,0.60
2018-02-23T01:23:18.423Z,0.60
2018-02-23T01:23:50.072Z,0.60
2018-02-23T01:24:21.680Z,0.60
2018-02-23T01:24:53.308Z,0.60
2018-02-23T01:25:24.937Z,0.60
2018-02-23T01:25:56.561Z,0.60
2018-02-23T01:26:28.188Z,0.60
2018-02-23T01:26:59.837Z,0.60
2018-02-23T01:27:31.449Z,0.70
2018-02-23T01:28:03.072Z,0.70
2018-02-23T01:28:34.680Z,0.60
2018-02-23T01:29:06.339Z,0.60
2018-02-23T01:29:37.991Z,0.60
2018-02-23T01:30:09.641Z,0.60
2018-02-23T01:30:41.265Z,0.70
2018-02-23T01:31:13.479Z,0.60
2018-02-23T01:31:45.104Z,0.60
2018-02-23T01:32:16.729Z,0.60
2018-02-23T01:32:48.344Z,0.50
2018-02-23T01:33:19.961Z,0.60
2018-02-23T01:33:51.577Z,0.70
2018-02-23T01:34:23.185Z,0.60
2018-02-23T01:34:54.816Z,0.60
2018-02-23T01:35:26.417Z,0.60
2018-02-23T01:35:58.033Z,0.60
2018-02-23T01:36:29.645Z,0.60
2018-02-23T01:37:01.290Z,0.60
2018-02-23T01:37:32.929Z,0.60
2018-02-23T01:38:04.553Z,0.60
2018-02-23T01:38:36.189Z,0.50
2018-02-23T01:39:07.823Z,0.60
2018-02-23T01:39:39.446Z,0.50
2018-02-23T01:40:11.054Z,0.50
2018-02-23T01:40:42.676Z,0.50
2018-02-23T01:41:14.301Z,0.50
2018-02-23T01:41:45.977Z,0.50
2018-02-23T01:42:17.607Z,0.50
2018-02-23T01:42:49.235Z,0.50
2018-02-23T01:43:20.853Z,0.60
2018-02-23T01:43:52.495Z,0.50
2018-02-23T01:44:24.132Z,0.50
2018-02-23T01:44:55.758Z,0.50
2018-02-23T01:45:27.381Z,0.50
2018-02-23T01:45:59.025Z,0.50
2018-02-23T01:46:30.655Z,0.50
2018-02-23T01:47:02.247Z,0.50
2018-02-23T01:47:33.881Z,0.50
2018-02-23T01:48:05.511Z,0.50
2018-02-23T01:48:37.145Z,0.50
2018-02-23T01:49:08.753Z,0.60
2018-02-23T01:49:40.384Z,0.60
2018-02-23T01:50:12.020Z,0.60
2018-02-23T01:50:59.013Z,0.60
2018-02-23T01:51:30.615Z,0.60
2018-02-23T01:52:02.249Z,0.60
2018-02-23T01:52:33.876Z,0.50
2018-02-23T01:53:05.504Z,0.60
2018-02-23T01:53:37.107Z,0.50
2018-02-23T01:54:08.913Z,0.50
2018-02-23T01:54:40.545Z,0.50
2018-02-23T01:55:12.165Z,0.50
2018-02-23T01:55:43.781Z,0.50
2018-02-23T01:56:15.405Z,0.50
2018-02-23T01:56:47.019Z,0.50
2018-02-23T01:57:18.665Z,0.50
2018-02-23T01:57:50.310Z,0.40
2018-02-23T01:58:21.973Z,0.50
2018-02-23T01:58:53.613Z,0.50
2018-02-23T01:59:25.219Z,0.50
2018-02-23T01:59:56.881Z,0.40
2018-02-23T02:00:28.545Z,0.50
2018-02-23T02:01:00.176Z,0.50
2018-02-23T02:01:31.827Z,0.50
2018-02-23T02:02:03.454Z,0.40
2018-02-23T02:02:35.087Z,0.40
2018-02-23T02:03:06.710Z,0.50
2018-02-23T02:03:38.397Z,0.40
2018-02-23T02:04:10.343Z,0.40
2018-02-23T02:04:41.979Z,0.40
2018-02-23T02:05:13.571Z,0.40
2018-02-23T02:05:45.189Z,0.40
2018-02-23T02:06:16.828Z,0.40
2018-02-23T02:06:48.485Z,0.40
2018-02-23T02:07:20.102Z,0.40
2018-02-23T02:07:51.725Z,0.40
2018-02-23T02:08:23.351Z,0.40
2018-02-23T02:08:54.965Z,0.40
2018-02-23T02:09:26.627Z,0.40
2018-02-23T02:09:58.251Z,0.40
2018-02-23T02:10:29.889Z,0.40
2018-02-23T02:11:01.517Z,0.40
2018-02-23T02:11:33.139Z,0.50
2018-02-23T02:12:04.777Z,0.40
2018-02-23T02:12:36.417Z,0.40
2018-02-23T02:13:08.051Z,0.40
2018-02-23T02:13:39.659Z,0.40
2018-02-23T02:14:11.289Z,0.40
2018-02-23T02:14:42.905Z,0.40
2018-02-23T02:15:14.547Z,0.50
2018-02-23T02:15:46.195Z,0.40
2018-02-23T02:16:17.862Z,0.40
2018-02-23T02:16:49.484Z,0.40
2018-02-23T02:17:21.117Z,0.50
2018-02-23T02:17:52.757Z,0.40
2018-02-23T02:18:24.391Z,0.40
2018-02-23T02:18:56.017Z,0.40
2018-02-23T02:19:27.663Z,0.40
2018-02-23T02:19:59.319Z,0.40
2018-02-23T02:20:30.973Z,0.40
2018-02-23T02:21:02.616Z,0.40
2018-02-23T02:21:34.339Z,0.40
2018-02-23T02:22:05.952Z,0.40
2018-02-23T02:22:37.614Z,0.50
2018-02-23T02:23:09.261Z,0.40
2018-02-23T02:23:40.885Z,0.50
2018-02-23T02:24:12.545Z,0.40
2018-02-23T02:24:44.218Z,0.40
2018-02-23T02:25:15.810Z,0.50
2018-02-23T02:25:47.422Z,0.50
2018-02-23T02:26:19.053Z,0.50
2018-02-23T02:26:50.701Z,0.40
2018-02-23T02:27:22.309Z,0.50
2018-02-23T02:27:53.921Z,0.50
2018-02-23T02:28:25.549Z,0.50
2018-02-23T02:28:57.230Z,0.50
2018-02-23T02:29:28.893Z,0.50
2018-02-23T02:30:00.542Z,0.40
2018-02-23T02:30:32.199Z,0.40
2018-02-23T02:31:03.854Z,0.40
2018-02-23T02:31:35.496Z,0.50
2018-02-23T02:32:07.125Z,0.50
2018-02-23T02:32:38.747Z,0.50
2018-02-23T02:33:10.395Z,0.50
2018-02-23T02:33:42.036Z,0.50
2018-02-23T02:34:13.683Z,0.50
2018-02-23T02:34:45.311Z,0.50
2018-02-23T02:35:16.953Z,0.50
2018-02-23T02:35:48.557Z,0.50
2018-02-23T02:36:20.211Z,0.50
2018-02-23T02:36:51.867Z,0.50
2018-02-23T02:37:23.503Z,0.50
2018-02-23T02:37:55.123Z,0.50
2018-02-23T02:38:26.770Z,0.60
2018-02-23T02:38:58.400Z,0.60
2018-02-23T02:39:30.015Z,0.60
2018-02-23T02:40:01.654Z,0.50
2018-02-23T02:40:33.298Z,0.50
2018-02-23T02:41:04.929Z,0.50
2018-02-23T02:41:36.561Z,0.50
2018-02-23T02:42:08.200Z,0.50
2018-02-23T02:42:39.817Z,0.50
2018-02-23T02:43:11.433Z,0.50
2018-02-23T02:43:43.050Z,0.50
2018-02-23T02:44:14.717Z,0.50
2018-02-23T02:44:46.393Z,0.50
2018-02-23T02:45:18.000Z,0.40
2018-02-23T02:45:49.611Z,0.50
2018-02-23T02:46:21.230Z,0.50
2018-02-23T02:46:52.864Z,0.40
2018-02-23T02:47:24.468Z,0.50
2018-02-23T02:47:56.089Z,0.50
2018-02-23T02:48:27.721Z,0.50
2018-02-23T02:48:59.325Z,0.50
2018-02-23T02:49:30.937Z,0.50
2018-02-23T02:50:02.603Z,0.40
2018-02-23T02:50:34.225Z,0.40
2018-02-23T02:51:05.854Z,0.40
2018-02-23T02:51:37.566Z,0.40
2018-02-23T02:52:09.508Z,0.30
2018-02-23T02:52:41.126Z,0.30
2018-02-23T02:53:12.765Z,0.40
2018-02-23T02:53:44.429Z,0.40
2018-02-23T02:54:16.045Z,0.40
2018-02-23T02:54:47.671Z,0.40
2018-02-23T02:55:19.289Z,0.40
2018-02-23T02:55:50.919Z,0.40
2018-02-23T02:56:22.558Z,0.40
2018-02-23T02:56:54.174Z,0.40
2018-02-23T02:57:25.789Z,0.40
2018-02-23T02:57:57.412Z,0.30
2018-02-23T02:58:29.043Z,0.40
2018-02-23T02:59:00.681Z,0.30
2018-02-23T02:59:32.285Z,0.40
2018-02-23T03:00:03.977Z,0.30
2018-02-23T03:00:35.633Z,0.30
2018-02-23T03:01:07.253Z,0.30
2018-02-23T03:01:38.913Z,0.30
2018-02-23T03:02:10.578Z,0.30
2018-02-23T03:02:42.220Z,0.20
2018-02-23T03:03:13.848Z,0.30
2018-02-23T03:03:45.527Z,0.20
2018-02-23T03:04:17.161Z,0.30
2018-02-23T03:04:48.796Z,0.30
2018-02-23T03:05:20.407Z,0.20
2018-02-23T03:05:52.024Z,0.30
2018-02-23T03:06:23.639Z,0.30
2018-02-23T03:06:55.259Z,0.30
2018-02-23T03:07:26.869Z,0.30
2018-02-23T03:07:58.508Z,0.40
2018-02-23T03:08:30.141Z,0.30
2018-02-23T03:09:01.772Z,0.30
2018-02-23T03:09:33.399Z,0.30
2018-02-23T03:10:05.023Z,0.30
2018-02-23T03:10:36.641Z,0.20
2018-02-23T03:11:08.285Z,0.20
2018-02-23T03:11:39.941Z,0.30
2018-02-23T03:12:11.577Z,0.30
2018-02-23T03:12:43.208Z,0.30
2018-02-23T03:13:14.809Z,0.30
2018-02-23T03:13:46.408Z,0.20
2018-02-23T03:14:18.025Z,0.40
2018-02-23T03:14:49.651Z,0.30
2018-02-23T03:15:21.263Z,0.30
2018-02-23T03:15:52.863Z,0.30
2018-02-23T03:16:24.493Z,0.30
2018-02-23T03:16:56.117Z,0.30
2018-02-23T03:17:27.747Z,0.40
2018-02-23T03:17:59.365Z,0.30
2018-02-23T03:18:30.990Z,0.20
2018-02-23T03:19:02.627Z,0.30
2018-02-23T03:19:34.232Z,0.30
2018-02-23T03:20:05.853Z,0.30
2018-02-23T03:20:37.477Z,0.30
2018-02-23T03:21:09.128Z,0.30
2018-02-23T03:21:40.737Z,0.30
2018-02-23T03:22:12.359Z,0.40
2018-02-23T03:22:43.986Z,0.30
2018-02-23T03:23:15.599Z,0.30
2018-02-23T03:23:47.229Z,0.30
2018-02-23T03:24:18.851Z,0.30
2018-02-23T03:24:50.521Z,0.30
2018-02-23T03:25:22.165Z,0.20
2018-02-23T03:25:53.787Z,0.20
2018-02-23T03:26:25.419Z,0.30
2018-02-23T03:26:57.053Z,0.30
2018-02-23T03:27:28.702Z,0.30
2018-02-23T03:28:00.326Z,0.20
2018-02-23T03:28:31.925Z,0.20
2018-02-23T03:29:03.563Z,0.20
2018-02-23T03:29:35.162Z,0.20
2018-02-23T03:30:06.806Z,0.20
2018-02-23T03:30:38.418Z,0.20
2018-02-23T03:31:10.055Z,0.20
2018-02-23T03:31:41.683Z,0.20
2018-02-23T03:32:13.288Z,0.20
2018-02-23T03:32:44.912Z,0.20
2018-02-23T03:33:16.521Z,0.20
2018-02-23T03:33:48.145Z,0.20
2018-02-23T03:34:19.761Z,0.20
2018-02-23T03:34:51.369Z,0.10
2018-02-23T03:35:23.001Z,0.10
2018-02-23T03:35:54.621Z,0.20
2018-02-23T03:36:26.241Z,0.20
2018-02-23T03:36:57.885Z,0.20
2018-02-23T03:37:29.553Z,0.20
2018-02-23T03:38:01.191Z,0.30
2018-02-23T03:38:32.824Z,0.20
2018-02-23T03:39:04.501Z,0.20
2018-02-23T03:39:36.118Z,0.20
2018-02-23T03:40:07.733Z,0.20
2018-02-23T03:40:39.360Z,0.20
2018-02-23T03:41:10.980Z,0.20
2018-02-23T03:41:42.589Z,0.30
2018-02-23T03:42:14.201Z,0.30
2018-02-23T03:42:45.823Z,0.30
2018-02-23T03:43:17.471Z,0.30
2018-02-23T03:43:49.071Z,0.30
2018-02-23T03:44:20.679Z,0.30
2018-02-23T03:44:52.314Z,0.40
2018-02-23T03:45:23.929Z,0.30
2018-02-23T03:45:55.568Z,0.30
2018-02-23T03:46:27.202Z,0.30
2018-02-23T03:46:58.825Z,0.30
2018-02-23T03:47:30.462Z,0.20
2018-02-23T03:48:02.094Z,0.20
2018-02-23T03:48:33.711Z,0.30
2018-02-23T03:49:05.321Z,0.30
2018-02-23T03:49:36.955Z,0.20
2018-02-23T03:50:08.581Z,0.20
2018-02-23T03:50:40.199Z,0.20
2018-02-23T03:51:11.824Z,0.20
2018-02-23T03:51:43.429Z,0.20
2018-02-23T03:52:15.075Z,0.20
2018-02-23T03:52:46.685Z,0.20
2018-02-23T03:53:18.316Z,0.30
2018-02-23T03:53:49.961Z,0.30
2018-02-23T03:54:21.637Z,0.20
2018-02-23T03:54:53.279Z,0.20
2018-02-23T03:55:24.926Z,0.20
2018-02-23T03:55:56.565Z,0.20
2018-02-23T03:56:28.205Z,0.20
2018-02-23T03:56:59.813Z,0.10
2018-02-23T03:57:31.446Z,0.20
2018-02-23T03:58:03.094Z,0.20
2018-02-23T03:58:34.717Z,0.20
2018-02-23T03:59:06.377Z,0.10
2018-02-23T03:59:38.005Z,0.20
2018-02-23T04:00:09.633Z,0.20
2018-02-23T04:00:41.260Z,0.20
2018-02-23T04:01:13.023Z,0.30
2018-02-23T04:01:44.640Z,0.20
2018-02-23T04:02:16.247Z,0.20
2018-02-23T04:02:47.885Z,0.30
2018-02-23T04:03:19.529Z,0.30
2018-02-23T04:03:51.148Z,0.20
2018-02-23T04:04:22.790Z,0.20
2018-02-23T04:04:54.419Z,0.20
2018-02-23T04:05:26.043Z,0.20
2018-02-23T04:05:57.652Z,0.20
2018-02-23T04:06:29.294Z,0.20
2018-02-23T04:07:00.914Z,0.20
2018-02-23T04:07:32.547Z,0.20
2018-02-23T04:08:04.172Z,0.20
2018-02-23T04:08:35.793Z,0.20
2018-02-23T04:09:07.417Z,0.10
2018-02-23T04:09:39.045Z,0.20
2018-02-23T04:10:10.653Z,0.10
2018-02-23T04:10:42.279Z,0.00
2018-02-23T04:11:13.896Z,0.10
2018-02-23T04:11:45.523Z,0.10
2018-02-23T04:12:17.181Z,0.10
2018-02-23T04:12:48.818Z,0.10
2018-02-23T04:13:20.445Z,0.10
2018-02-23T04:13:52.077Z,0.10
2018-02-23T04:14:23.707Z,0.10
2018-02-23T04:14:55.335Z,0.10
2018-02-23T04:15:26.964Z,0.10
2018-02-23T04:15:58.590Z,0.10
2018-02-23T04:16:30.213Z,0.10
2018-02-23T04:17:01.823Z,0.00
2018-02-23T04:17:33.448Z,0.00
2018-02-23T04:18:05.055Z,0.10
2018-02-23T04:18:36.680Z,0.10
2018-02-23T04:19:08.289Z,0.00
2018-02-23T04:19:39.905Z,0.00
2018-02-23T04:20:11.541Z,0.00
2018-02-23T04:20:43.152Z,0.10
2018-02-23T04:21:14.771Z,0.10
2018-02-23T04:21:46.401Z,0.00
2018-02-23T04:22:18.033Z,0.10
2018-02-23T04:22:49.683Z,0.10
2018-02-23T04:23:21.333Z,0.00
2018-02-23T04:23:52.964Z,0.10
2018-02-23T04:24:24.593Z,0.10
2018-02-23T04:24:56.220Z,0.10
2018-02-23T04:25:27.866Z,0.10
2018-02-23T04:25:59.493Z,0.00
2018-02-23T04:26:31.131Z,0.10
2018-02-23T04:27:02.762Z,0.00
2018-02-23T04:27:34.369Z,0.00
2018-02-23T04:28:06.017Z,0.00
2018-02-23T04:28:37.653Z,0.00
2018-02-23T04:29:09.269Z,0.00
2018-02-23T04:29:40.894Z,0.10
2018-02-23T04:30:12.513Z,0.00
2018-02-23T04:30:44.134Z,0.10
2018-02-23T04:31:15.759Z,0.00
2018-02-23T04:31:47.372Z,0.00
2018-02-23T04:32:18.982Z,0.10
2018-02-23T04:32:50.621Z,0.10
2018-02-23T04:33:22.245Z,0.10
2018-02-23T04:33:53.873Z,0.10
2018-02-23T04:34:25.530Z,0.00
2018-02-23T04:34:57.157Z,0.00
2018-02-23T04:35:28.773Z,0.10
2018-02-23T04:36:00.409Z,0.00
2018-02-23T04:36:32.022Z,0.00
2018-02-23T04:37:03.641Z,0.00
2018-02-23T04:37:35.280Z,0.00
2018-02-23T04:38:06.917Z,0.00
2018-02-23T04:38:38.528Z,0.10
2018-02-23T04:39:10.138Z,0.10
2018-02-23T04:39:41.777Z,0.10
2018-02-23T04:40:13.411Z,0.10
2018-02-23T04:40:45.029Z,0.10
2018-02-23T04:41:16.661Z,0.10
2018-02-23T04:41:48.274Z,0.00
2018-02-23T04:42:19.880Z,0.10
2018-02-23T04:42:51.469Z,0.10
2018-02-23T04:43:23.142Z,0.20
2018-02-23T04:43:54.761Z,0.30
2018-02-23T04:44:26.378Z,0.10
2018-02-23T04:44:58.033Z,0.10
2018-02-23T04:45:29.650Z,0.20
2018-02-23T04:46:01.292Z,0.20
2018-02-23T04:46:32.905Z,0.10
2018-02-23T04:47:04.522Z,0.10
2018-02-23T04:47:36.136Z,0.20
2018-02-23T04:48:07.749Z,0.10
2018-02-23T04:48:39.384Z,0.10
2018-02-23T04:49:11.039Z,0.10
2018-02-23T04:49:42.658Z,0.10
2018-02-23T04:50:14.277Z,0.10
2018-02-23T04:50:45.904Z,0.20
2018-02-23T04:51:17.560Z,0.20
2018-02-23T04:51:49.179Z,0.20
2018-02-23T04:52:20.801Z,0.20
2018-02-23T04:52:52.434Z,0.20
2018-02-23T04:53:24.057Z,0.20
2018-02-23T04:53:55.676Z,0.20
2018-02-23T04:54:27.301Z,0.10
2018-02-23T04:54:58.904Z,0.20
2018-02-23T04:55:30.509Z,0.10
2018-02-23T04:56:02.152Z,0.10
2018-02-23T04:56:33.770Z,0.10
2018-02-23T04:57:05.392Z,0.10
2018-02-23T04:57:37.003Z,0.10
2018-02-23T04:58:08.649Z,0.20
2018-02-23T04:58:40.256Z,0.10
2018-02-23T04:59:11.880Z,0.20
2018-02-23T04:59:43.503Z,0.20
2018-02-23T05:00:15.135Z,0.20
2018-02-23T05:00:46.819Z,0.20
2018-02-23T05:01:18.443Z,0.10
2018-02-23T05:01:50.101Z,0.10
2018-02-23T05:02:21.703Z,0.20
2018-02-23T05:02:53.397Z,0.20
2018-02-23T05:03:25.048Z,0.20
2018-02-23T05:03:56.673Z,0.20
2018-02-23T05:04:28.301Z,0.20
2018-02-23T05:04:59.933Z,0.20
2018-02-23T05:05:31.578Z,0.20
2018-02-23T05:06:03.199Z,0.20
2018-02-23T05:06:34.813Z,0.20
2018-02-23T05:07:06.450Z,0.20
2018-02-23T05:07:38.070Z,0.20
2018-02-23T05:08:09.694Z,0.20
2018-02-23T05:08:41.290Z,0.20
2018-02-23T05:09:12.913Z,0.20
2018-02-23T05:09:44.563Z,0.20
2018-02-23T05:10:16.193Z,0.20
2018-02-23T05:10:47.843Z,0.20
2018-02-23T05:11:19.477Z,0.20
2018-02-23T05:11:51.113Z,0.20
2018-02-23T05:12:22.775Z,0.20
2018-02-23T05:12:54.442Z,0.20
2018-02-23T05:13:26.087Z,0.20
2018-02-23T05:13:57.695Z,0.20
2018-02-23T05:14:29.305Z,0.20
2018-02-23T05:15:00.939Z,0.10
2018-02-23T05:15:32.565Z,0.20
2018-02-23T05:16:10.408Z,0.20
2018-02-23T05:16:42.033Z,0.20
2018-02-23T05:17:13.674Z,0.20
2018-02-23T05:17:45.296Z,0.20
2018-02-23T05:18:16.937Z,0.20
2018-02-23T05:18:48.596Z,0.20
2018-02-23T05:19:20.245Z,0.20
2018-02-23T05:19:51.866Z,0.20
2018-02-23T05:20:23.487Z,0.20
2018-02-23T05:20:55.121Z,0.10
2018-02-23T05:21:26.763Z,0.20
2018-02-23T05:21:58.417Z,0.20
2018-02-23T05:22:30.075Z,0.10
2018-02-23T05:23:01.697Z,0.10
2018-02-23T05:23:33.310Z,0.20
2018-02-23T05:24:04.941Z,0.10
2018-02-23T05:24:36.588Z,0.20
2018-02-23T05:25:08.243Z,0.20
2018-02-23T05:25:39.884Z,0.20
2018-02-23T05:26:11.561Z,0.20
2018-02-23T05:26:43.175Z,0.20
2018-02-23T05:27:14.803Z,0.20
2018-02-23T05:27:46.412Z,0.20
2018-02-23T05:28:18.080Z,0.10
2018-02-23T05:28:49.764Z,0.20
2018-02-23T05:29:21.396Z,0.20
2018-02-23T05:29:53.031Z,0.20
2018-02-23T05:30:24.671Z,0.20
2018-02-23T05:30:56.338Z,0.20
2018-02-23T05:31:27.986Z,0.20
2018-02-23T05:31:59.614Z,0.20
2018-02-23T05:32:31.258Z,0.20
2018-02-23T05:33:02.885Z,0.20
2018-02-23T05:33:34.515Z,0.10
2018-02-23T05:34:06.163Z,0.10
2018-02-23T05:34:37.795Z,0.10
2018-02-23T05:35:09.423Z,0.10
2018-02-23T05:35:41.088Z,0.20
2018-02-23T05:36:12.722Z,0.20
2018-02-23T05:36:44.697Z,0.20
2018-02-23T05:37:16.328Z,0.10
2018-02-23T05:37:47.962Z,0.10
2018-02-23T05:38:19.630Z,0.10
2018-02-23T05:38:51.290Z,0.10
2018-02-23T05:39:22.914Z,0.10
2018-02-23T05:39:54.523Z,0.10
2018-02-23T05:40:26.165Z,0.10
2018-02-23T05:40:57.788Z,0.10
2018-02-23T05:41:29.387Z,0.10
2018-02-23T05:42:01.020Z,0.00
2018-02-23T05:42:32.638Z,0.00
2018-02-23T05:43:04.258Z,0.10
2018-02-23T05:43:35.890Z,0.00
2018-02-23T05:44:07.507Z,0.00
2018-02-23T05:44:39.145Z,0.10
2018-02-23T05:45:10.778Z,0.00
2018-02-23T05:45:42.423Z,0.10
2018-02-23T05:46:14.071Z,0.10
2018-02-23T05:46:45.722Z,0.10
2018-02-23T05:47:17.361Z,0.10
2018-02-23T05:47:48.996Z,0.10
2018-02-23T05:48:20.616Z,0.00
2018-02-23T05:48:52.241Z,0.10
2018-02-23T05:49:23.853Z,0.00
2018-02-23T05:49:55.481Z,0.00
2018-02-23T05:50:27.095Z,0.00
2018-02-23T05:50:58.696Z,0.00
2018-02-23T05:51:30.320Z,0.00
2018-02-23T05:52:01.935Z,0.00
2018-02-23T05:52:33.573Z,0.00
2018-02-23T05:53:05.192Z,0.00
2018-02-23T05:53:36.802Z,-0.10
2018-02-23T05:54:08.464Z,0.00
2018-02-23T05:54:40.085Z,0.00
2018-02-23T05:55:26.633Z,0.00
2018-02-23T05:55:58.276Z,0.00
2018-02-23T05:56:29.892Z,0.00
2018-02-23T05:57:01.527Z,0.00
2018-02-23T05:57:33.136Z,0.00
2018-02-23T05:58:04.793Z,0.00
2018-02-23T05:58:36.430Z,0.00
2018-02-23T05:59:08.060Z,0.00
2018-02-23T05:59:39.667Z,0.10
2018-02-23T06:00:11.280Z,0.10
2018-02-23T06:00:42.933Z,0.10
2018-02-23T06:01:14.553Z,0.10
2018-02-23T06:01:46.175Z,0.10
2018-02-23T06:02:17.817Z,0.10
2018-02-23T06:02:49.420Z,0.10
2018-02-23T06:03:21.077Z,0.10
2018-02-23T06:03:52.681Z,0.20
2018-02-23T06:04:24.286Z,0.10
2018-02-23T06:04:55.924Z,0.00
2018-02-23T06:05:27.545Z,0.10
2018-02-23T06:05:59.160Z,0.00
2018-02-23T06:06:30.781Z,0.00
2018-02-23T06:07:02.420Z,0.10
2018-02-23T06:07:34.033Z,0.10
2018-02-23T06:08:05.669Z,0.00
2018-02-23T06:08:37.326Z,0.10
2018-02-23T06:09:08.976Z,0.00
2018-02-23T06:09:40.594Z,0.10
2018-02-23T06:10:12.221Z,0.10
2018-02-23T06:10:43.863Z,0.00
2018-02-23T06:11:15.495Z,0.00
2018-02-23T06:11:47.139Z,0.00
2018-02-23T06:12:18.744Z,0.00
2018-02-23T06:12:50.352Z,0.00
2018-02-23T06:13:21.964Z,0.00
2018-02-23T06:13:53.616Z,0.10
2018-02-23T06:14:25.218Z,0.10
2018-02-23T06:14:56.852Z,0.10
2018-02-23T06:15:34.598Z,0.10
2018-02-23T06:16:12.281Z,0.10
2018-02-23T06:16:43.901Z,0.10
2018-02-23T06:17:21.736Z,0.10
2018-02-23T06:17:59.549Z,0.10
2018-02-23T06:18:37.332Z,0.10
2018-02-23T06:19:08.985Z,0.10
2018-02-23T06:19:46.926Z,0.10
2018-02-23T06:20:24.771Z,0.10
2018-02-23T06:20:56.406Z,0.10
2018-02-23T06:21:28.017Z,0.10
2018-02-23T06:21:59.624Z,0.10
2018-02-23T06:22:31.233Z,0.10
2018-02-23T06:23:02.869Z,0.10
2018-02-23T06:23:34.511Z,0.10
2018-02-23T06:24:06.104Z,0.10
2018-02-23T06:24:37.745Z,0.10
2018-02-23T06:25:09.355Z,0.10
2018-02-23T06:25:40.985Z,0.10
2018-02-23T06:26:12.616Z,0.10
2018-02-23T06:26:44.242Z,0.20
2018-02-23T06:27:15.870Z,0.10
2018-02-23T06:27:47.491Z,0.10
2018-02-23T06:28:19.121Z,0.10
2018-02-23T06:28:50.750Z,0.10
2018-02-23T06:29:22.384Z,0.00
2018-02-23T06:29:54.008Z,0.00
2018-02-23T06:30:25.617Z,0.00
2018-02-23T06:30:57.245Z,0.10
2018-02-23T06:31:28.859Z,0.00
2018-02-23T06:32:00.507Z,0.00
2018-02-23T06:32:32.117Z,0.00
2018-02-23T06:33:03.748Z,0.00
2018-02-23T06:33:35.375Z,0.00
2018-02-23T06:34:07.009Z,0.10
2018-02-23T06:34:38.628Z,0.00
2018-02-23T06:35:10.262Z,0.10
2018-02-23T06:35:41.855Z,0.00
2018-02-23T06:36:13.471Z,0.10
2018-02-23T06:36:45.102Z,0.10
2018-02-23T06:37:16.722Z,0.00
2018-02-23T06:37:48.364Z,0.00
2018-02-23T06:38:19.992Z,0.00
2018-02-23T06:38:51.632Z,0.00
2018-02-23T06:39:23.251Z,0.10
2018-02-23T06:39:54.876Z,0.00
2018-02-23T06:40:26.505Z,0.00
2018-02-23T06:40:58.120Z,0.10
2018-02-23T06:41:29.717Z,0.00
2018-02-23T06:42:01.344Z,0.00
2018-02-23T06:42:32.973Z,0.00
2018-02-23T06:43:04.596Z,0.10
2018-02-23T06:43:36.247Z,0.00
2018-02-23T06:44:07.876Z,0.00
2018-02-23T06:44:39.509Z,0.00
2018-02-23T06:45:11.133Z,0.10
2018-02-23T06:45:42.804Z,0.10
2018-02-23T06:46:14.434Z,0.10
2018-02-23T06:46:46.090Z,0.00
2018-02-23T06:47:17.714Z,0.00
2018-02-23T06:47:49.324Z,0.10
2018-02-23T06:48:20.949Z,0.00
2018-02-23T06:48:52.576Z,0.10
2018-02-23T06:49:24.214Z,0.10
2018-02-23T06:49:55.830Z,0.10
2018-02-23T06:50:27.438Z,0.10
2018-02-23T06:50:59.114Z,0.10
2018-02-23T06:51:30.722Z,0.10
2018-02-23T06:52:02.371Z,0.10
2018-02-23T06:52:33.998Z,0.20
2018-02-23T06:53:05.611Z,0.10
2018-02-23T06:53:37.231Z,0.10
2018-02-23T06:54:08.861Z,0.10
2018-02-23T06:54:40.496Z,0.10
2018-02-23T06:55:12.145Z,0.10
2018-02-23T06:55:43.750Z,0.10
2018-02-23T06:56:15.392Z,0.10
2018-02-23T06:56:47.021Z,0.10
2018-02-23T06:57:18.637Z,0.10
2018-02-23T06:57:50.320Z,0.10
2018-02-23T06:58:21.964Z,0.10
2018-02-23T06:58:53.614Z,0.20
2018-02-23T06:59:25.218Z,0.20
2018-02-23T06:59:56.836Z,0.20
2018-02-23T07:00:28.452Z,0.20
2018-02-23T07:01:00.057Z,0.20
2018-02-23T07:01:31.695Z,0.20
2018-02-23T07:02:03.338Z,0.20
2018-02-23T07:02:34.952Z,0.20